Pagrindinis puslapis
METAR-TAF:

METAR-TAF

Oro uostai :

Librevilio oro uostas

Librevilis, Gabonas

platuma: 00-27N, ilguma: 009-25E, Aukštis: 12 m

Dabartinis oras

Ataskaita buvo paskelbta 1 valandą ir 9 minutes, ne 04:00 UTC
Vėjas 4 kt iš Pietų/Pietvakarių, svyruoja nuo Pietų ir Vakarų/Pietvakarių
Temperatūra 24°C
Drėgmė 94%
Slėgis 1012 hPa
Matomumas: 6000 m
Išsisklaidę debesys ne aukštis 1000 ft
Su prošvaistėmis ne aukštis 2700 ft
lietus

METAR: FOOL 180400Z 21004KT 170V250 6000 -RA SCT010 BKN027 24/23 Q1012 TEMPO 3000 RA

Laikas: 06:09 (05:09 UTC)

Prognozė

Ataskaita buvo paskelbta 6 valandos ir 9 minutes, ne 23:00 UTC
Prognozė galioja nuo 18 metu 00 UTC su 19 metu 06 UTC
Vėjas 6 kt iš Pietų/Pietvakarių
Matomumas 10 km arba daugiau
Išsisklaidę debesys ne aukštis 1200 ft
Su prošvaistėmis ne aukštis 3300 ft

TAF: FOOL 172300Z 1800/1906 20006KT 9999 SCT012 BKN033

Orai ataskaitas ir orų prognozės (METAR, TAF).

turimą stotys yra geltonos ir raudonos taškus žemėlapyje.

Perkelti pele per norėdami pamatyti stoties vardą.

Tada spustelėkite, norėdami matyti oro stebėjimo ir prognozės.

Norėdami pakeisti žemėlapį: spustelėkite ant žalios mygtukų su juodo kryžiaus žemyn,; žalią mygtuką su brūkšneliu, jei norite nutolinti; arba žalių rodyklių gretimoms žemėlapius.


METAR-TAF: